Time;durP1;ratioP1;P1;durP2;ratioP2;P2;SDS_P1;SDS_P2;PMS_P1;PMS_P2;Temp;Humidity;BMP_temperature;BMP_pressure;BME280_temperature;BME280_humidity;BME280_pressure;Samples;Min_cycle;Max_cycle;Signal;HPM_P1;HPM_P2
2022/01/11 00:01:43;;;;;;;11.88;6.38;;;;;;;;;;5010456;28;20420;-76
2022/01/11 00:04:10;;;;;;;12.43;5.90;;;;;;;;;;5013695;28;20037;-76
2022/01/11 00:09:19;;;;;;;11.15;5.70;;;;;;;;;;5010519;28;20738;-76
2022/01/11 00:11:49;;;;;;;11.20;4.88;;;;;;;;;;5010942;28;20104;-77
2022/01/11 00:14:15;;;;;;;13.13;6.28;;;;;;;;;;4997610;28;20042;-76
2022/01/11 00:16:41;;;;;;;13.35;6.05;;;;;;;;;;5009147;28;20381;-76
2022/01/11 00:19:07;;;;;;;12.30;7.60;;;;;;;;;;4998935;28;20043;-76
2022/01/11 00:21:44;;;;;;;12.80;6.97;;;;;;;;;;5010762;28;20034;-76
2022/01/11 00:24:30;;;;;;;11.73;6.00;;;;;;;;;;5009874;28;20121;-77
2022/01/11 00:26:57;;;;;;;9.68;5.38;;;;;;;;;;5010900;28;20030;-76
2022/01/11 00:29:23;;;;;;;11.35;6.07;;;;;;;;;;5009412;28;20038;-76
2022/01/11 00:31:49;;;;;;;11.10;5.53;;;;;;;;;;5010398;28;20366;-76
2022/01/11 00:34:18;;;;;;;11.52;5.65;;;;;;;;;;5009846;28;20057;-76
2022/01/11 00:36:44;;;;;;;12.90;6.50;;;;;;;;;;5005614;28;20061;-76
2022/01/11 00:39:11;;;;;;;15.68;7.25;;;;;;;;;;5014272;28;20068;-76
2022/01/11 00:41:38;;;;;;;13.38;6.53;;;;;;;;;;5014303;28;20033;-76
2022/01/11 00:44:04;;;;;;;12.55;7.30;;;;;;;;;;5013768;28;20109;-76
2022/01/11 00:46:30;;;;;;;13.15;6.35;;;;;;;;;;4997222;28;20768;-76
2022/01/11 00:48:56;;;;;;;11.07;5.63;;;;;;;;;;5003348;28;20053;-76
2022/01/11 00:51:22;;;;;;;12.02;6.40;;;;;;;;;;5008570;28;20042;-76
2022/01/11 00:53:48;;;;;;;10.65;5.88;;;;;;;;;;5013139;28;20750;-76
2022/01/11 00:56:14;;;;;;;14.25;6.05;;;;;;;;;;5013805;28;20053;-76
2022/01/11 00:58:41;;;;;;;12.10;5.28;;;;;;;;;;5013405;28;20038;-76
2022/01/11 01:01:07;;;;;;;9.68;4.30;;;;;;;;;;5013761;28;20176;-76
2022/01/11 01:03:33;;;;;;;10.32;3.58;;;;;;;;;;5013539;28;20041;-76
2022/01/11 01:05:59;;;;;;;7.20;3.85;;;;;;;;;;5012807;28;20026;-76
2022/01/11 01:08:25;;;;;;;8.65;3.50;;;;;;;;;;5013670;28;20030;-76
2022/01/11 01:10:51;;;;;;;7.25;3.63;;;;;;;;;;5012940;28;20034;-76
2022/01/11 01:13:19;;;;;;;7.78;3.78;;;;;;;;;;5013259;28;20076;-76
2022/01/11 01:15:49;;;;;;;7.30;3.35;;;;;;;;;;5013177;28;20045;-76
2022/01/11 01:18:17;;;;;;;7.72;3.90;;;;;;;;;;5013293;28;20030;-76
2022/01/11 01:20:46;;;;;;;7.50;3.35;;;;;;;;;;5001927;28;20041;-76
2022/01/11 01:23:12;;;;;;;6.93;3.15;;;;;;;;;;5012699;28;20129;-76
2022/01/11 01:25:39;;;;;;;5.90;2.92;;;;;;;;;;5013486;28;20113;-76
2022/01/11 01:28:06;;;;;;;9.20;3.15;;;;;;;;;;5011249;28;20053;-77
2022/01/11 01:30:32;;;;;;;8.48;3.60;;;;;;;;;;5013442;28;20030;-76
2022/01/11 01:32:58;;;;;;;7.53;3.40;;;;;;;;;;5012988;28;20041;-76
2022/01/11 01:35:29;;;;;;;7.38;3.17;;;;;;;;;;5008861;28;20117;-76
2022/01/11 01:37:55;;;;;;;10.20;4.50;;;;;;;;;;5007375;28;20029;-76
2022/01/11 01:40:21;;;;;;;9.30;3.13;;;;;;;;;;5012722;28;20038;-76
2022/01/11 01:42:48;;;;;;;7.63;3.28;;;;;;;;;;5013181;28;20037;-76
2022/01/11 01:45:15;;;;;;;8.65;3.58;;;;;;;;;;5012608;28;20072;-76
2022/01/11 01:47:41;;;;;;;9.27;4.20;;;;;;;;;;5012338;28;20030;-76
2022/01/11 01:50:08;;;;;;;9.35;4.05;;;;;;;;;;5012313;28;20117;-76
2022/01/11 01:52:35;;;;;;;13.18;4.68;;;;;;;;;;5012474;28;20034;-76
2022/01/11 01:55:01;;;;;;;9.55;3.65;;;;;;;;;;4993063;28;20038;-76
2022/01/11 01:57:27;;;;;;;9.85;3.50;;;;;;;;;;5006788;28;20026;-76
2022/01/11 01:59:53;;;;;;;10.27;3.85;;;;;;;;;;5012397;28;20034;-76
2022/01/11 02:02:19;;;;;;;6.72;3.40;;;;;;;;;;5011970;28;20488;-76
2022/01/11 02:04:48;;;;;;;11.43;3.97;;;;;;;;;;5012833;28;20029;-76
2022/01/11 02:07:14;;;;;;;8.85;4.00;;;;;;;;;;5012649;28;20064;-76
2022/01/11 02:09:40;;;;;;;9.48;3.88;;;;;;;;;;5012661;28;20041;-76
2022/01/11 02:12:07;;;;;;;10.65;4.15;;;;;;;;;;4985311;28;20030;-76
2022/01/11 02:14:33;;;;;;;8.32;3.97;;;;;;;;;;5009860;28;20469;-76
2022/01/11 02:17:00;;;;;;;9.75;4.78;;;;;;;;;;5011931;28;20033;-76
2022/01/11 02:19:27;;;;;;;12.10;5.82;;;;;;;;;;5012293;28;20033;-76
2022/01/11 02:21:53;;;;;;;9.10;3.67;;;;;;;;;;5014175;28;20026;-76
2022/01/11 02:24:19;;;;;;;4.55;1.77;;;;;;;;;;5031717;28;20112;-76
2022/01/11 02:26:45;;;;;;;4.32;1.52;;;;;;;;;;5031660;28;20032;-76
2022/01/11 02:29:11;;;;;;;6.03;1.65;;;;;;;;;;5031891;28;20065;-77
2022/01/11 02:31:38;;;;;;;4.45;1.45;;;;;;;;;;5031908;28;20140;-76
2022/01/11 02:34:04;;;;;;;7.03;2.53;;;;;;;;;;5021876;28;20476;-76
2022/01/11 02:36:31;;;;;;;8.35;3.58;;;;;;;;;;5031827;28;20117;-76
2022/01/11 02:38:58;;;;;;;8.88;3.65;;;;;;;;;;5031246;28;20476;-76
2022/01/11 02:41:25;;;;;;;7.80;3.08;;;;;;;;;;5031615;28;20037;-76
2022/01/11 02:43:52;;;;;;;24.13;8.73;;;;;;;;;;5031249;28;20034;-76
2022/01/11 02:46:19;;;;;;;24.00;10.75;;;;;;;;;;5031731;28;20030;-76
2022/01/11 02:48:46;;;;;;;26.52;10.27;;;;;;;;;;5030946;28;20033;-76
2022/01/11 02:51:12;;;;;;;26.92;11.18;;;;;;;;;;5031414;28;20037;-76
2022/01/11 02:53:46;;;;;;;25.98;9.20;;;;;;;;;;5031203;28;20033;-76
2022/01/11 02:56:12;;;;;;;10.38;4.07;;;;;;;;;;5030042;28;20499;-76
2022/01/11 02:58:39;;;;;;;12.90;6.22;;;;;;;;;;5030438;28;20112;-76
2022/01/11 03:01:05;;;;;;;10.75;5.18;;;;;;;;;;5030770;28;20103;-76
2022/01/11 03:03:31;;;;;;;7.10;2.95;;;;;;;;;;5030392;28;20065;-76
2022/01/11 03:05:59;;;;;;;8.43;3.75;;;;;;;;;;5031110;28;20033;-76
2022/01/11 03:08:26;;;;;;;8.43;3.70;;;;;;;;;;5019705;28;20026;-76
2022/01/11 03:10:53;;;;;;;7.80;2.92;;;;;;;;;;5025782;28;20171;-75
2022/01/11 03:13:20;;;;;;;11.73;6.05;;;;;;;;;;5030388;28;20132;-76
2022/01/11 03:15:46;;;;;;;11.20;5.22;;;;;;;;;;5024440;28;20065;-76
2022/01/11 03:18:12;;;;;;;4.50;1.67;;;;;;;;;;5026510;28;20044;-76
2022/01/11 03:20:39;;;;;;;4.82;1.42;;;;;;;;;;5030061;28;20689;-76
2022/01/11 03:23:06;;;;;;;7.13;2.95;;;;;;;;;;5018805;28;20050;-76
2022/01/11 03:25:32;;;;;;;9.77;4.65;;;;;;;;;;5010214;28;20388;-76
2022/01/11 03:27:58;;;;;;;18.92;9.15;;;;;;;;;;5011415;28;20041;-76
2022/01/11 03:30:24;;;;;;;11.27;7.70;;;;;;;;;;5009858;28;20362;-76
2022/01/11 03:32:50;;;;;;;9.00;4.75;;;;;;;;;;5011447;28;20030;-76
2022/01/11 03:35:17;;;;;;;7.68;3.95;;;;;;;;;;5008137;28;20042;-76
2022/01/11 03:37:44;;;;;;;9.18;5.10;;;;;;;;;;5011321;28;20034;-76
2022/01/11 03:40:11;;;;;;;8.02;4.03;;;;;;;;;;5010329;28;20042;-76
2022/01/11 03:42:38;;;;;;;6.10;2.28;;;;;;;;;;5010415;28;20063;-76
2022/01/11 03:45:05;;;;;;;5.95;2.60;;;;;;;;;;5010919;28;20044;-76
2022/01/11 03:47:31;;;;;;;7.28;2.42;;;;;;;;;;5009526;28;20040;-76
2022/01/11 03:49:57;;;;;;;4.57;2.00;;;;;;;;;;5010565;28;20030;-76
2022/01/11 03:52:23;;;;;;;6.90;2.10;;;;;;;;;;5010087;28;20112;-77
2022/01/11 03:57:25;;;;;;;5.88;2.17;;;;;;;;;;5003235;28;20040;-76
2022/01/11 03:59:51;;;;;;;4.88;1.80;;;;;;;;;;5010643;28;20620;-76
2022/01/11 04:02:17;;;;;;;7.50;1.95;;;;;;;;;;5010124;28;20030;-76
2022/01/11 04:04:44;;;;;;;5.30;1.40;;;;;;;;;;5010747;28;20113;-76
2022/01/11 04:07:10;;;;;;;18.95;10.50;;;;;;;;;;5010375;28;20030;-76
2022/01/11 04:09:36;;;;;;;69.03;38.17;;;;;;;;;;5007941;28;20117;-76
2022/01/11 04:12:02;;;;;;;44.05;24.83;;;;;;;;;;4997807;28;20436;-76
2022/01/11 04:14:28;;;;;;;44.80;23.15;;;;;;;;;;5010072;28;20554;-76
2022/01/11 04:16:54;;;;;;;17.73;8.05;;;;;;;;;;5010380;28;20057;-76
2022/01/11 04:19:21;;;;;;;16.60;7.57;;;;;;;;;;5009899;28;20049;-77
2022/01/11 04:21:47;;;;;;;9.15;4.28;;;;;;;;;;5010296;28;20045;-76
2022/01/11 04:24:15;;;;;;;9.07;3.72;;;;;;;;;;5009979;28;20089;-76
2022/01/11 04:26:41;;;;;;;54.50;34.33;;;;;;;;;;5010519;28;20042;-76
2022/01/11 04:29:07;;;;;;;17.65;10.80;;;;;;;;;;5001064;28;20037;-76
2022/01/11 04:31:33;;;;;;;10.70;5.50;;;;;;;;;;5010225;28;20378;-76
2022/01/11 04:33:59;;;;;;;9.55;4.60;;;;;;;;;;5004475;28;20389;-76
2022/01/11 04:36:25;;;;;;;16.17;8.45;;;;;;;;;;5004703;28;20034;-76
2022/01/11 04:38:51;;;;;;;21.52;11.63;;;;;;;;;;5009822;28;20062;-76
2022/01/11 04:41:17;;;;;;;26.40;15.98;;;;;;;;;;5010319;28;20064;-76
2022/01/11 04:43:44;;;;;;;14.88;7.40;;;;;;;;;;5009728;28;20137;-76
2022/01/11 04:46:10;;;;;;;12.05;4.78;;;;;;;;;;5009354;28;20037;-76
2022/01/11 04:48:36;;;;;;;8.85;2.35;;;;;;;;;;5009995;28;20483;-76
2022/01/11 04:51:03;;;;;;;6.63;1.70;;;;;;;;;;5009780;28;20034;-76
2022/01/11 04:53:29;;;;;;;6.05;1.95;;;;;;;;;;4999697;28;20041;-76
2022/01/11 04:55:56;;;;;;;4.20;1.63;;;;;;;;;;5010233;28;20089;-76
2022/01/11 04:58:22;;;;;;;4.88;1.27;;;;;;;;;;5009467;28;20069;-76
2022/01/11 05:00:48;;;;;;;5.85;1.70;;;;;;;;;;5010149;28;20507;-76
2022/01/11 05:03:14;;;;;;;4.47;1.60;;;;;;;;;;5009898;28;20073;-76
2022/01/11 05:05:40;;;;;;;4.30;1.60;;;;;;;;;;5010076;28;20030;-77
2022/01/11 05:08:06;;;;;;;5.00;1.38;;;;;;;;;;5009931;28;20109;-76
2022/01/11 05:10:32;;;;;;;4.72;1.52;;;;;;;;;;5009596;28;20081;-76
2022/01/11 05:12:59;;;;;;;6.85;2.30;;;;;;;;;;4995908;28;20038;-76
2022/01/11 05:15:25;;;;;;;5.93;2.10;;;;;;;;;;5009888;28;20033;-76
2022/01/11 05:17:52;;;;;;;6.88;2.90;;;;;;;;;;5010334;28;20088;-76
2022/01/11 05:20:18;;;;;;;6.57;3.03;;;;;;;;;;5004629;28;20039;-75
2022/01/11 05:22:45;;;;;;;11.93;2.90;;;;;;;;;;5020542;28;20116;-76
2022/01/11 05:25:13;;;;;;;13.15;4.65;;;;;;;;;;5032340;28;20033;-76
2022/01/11 05:27:39;;;;;;;8.27;3.13;;;;;;;;;;5033394;28;20026;-76
2022/01/11 05:30:06;;;;;;;11.25;2.70;;;;;;;;;;5025033;28;20572;-76
2022/01/11 05:32:32;;;;;;;4.90;1.30;;;;;;;;;;5032771;28;20083;-76
2022/01/11 05:34:58;;;;;;;5.10;1.08;;;;;;;;;;5032976;28;20032;-76
2022/01/11 05:37:24;;;;;;;3.03;1.30;;;;;;;;;;5033388;28;20030;-76
2022/01/11 05:39:53;;;;;;;4.70;1.50;;;;;;;;;;5032813;28;20029;-76
2022/01/11 05:42:19;;;;;;;6.07;1.98;;;;;;;;;;5032339;28;20028;-76
2022/01/11 05:44:45;;;;;;;4.03;1.60;;;;;;;;;;5013047;28;20072;-76
2022/01/11 05:47:11;;;;;;;5.68;1.85;;;;;;;;;;5027692;28;20376;-76
2022/01/11 05:49:37;;;;;;;5.55;1.80;;;;;;;;;;5032826;28;20034;-76
2022/01/11 05:52:03;;;;;;;6.13;1.70;;;;;;;;;;5032123;28;20029;-76
2022/01/11 05:54:30;;;;;;;6.97;2.05;;;;;;;;;;5032493;28;20483;-76
2022/01/11 05:56:56;;;;;;;7.32;2.20;;;;;;;;;;5031639;28;20038;-76
2022/01/11 05:59:22;;;;;;;7.38;2.65;;;;;;;;;;5032154;28;20049;-76
2022/01/11 06:01:48;;;;;;;12.18;3.90;;;;;;;;;;5031615;28;20033;-75
2022/01/11 06:04:14;;;;;;;8.52;2.85;;;;;;;;;;5032443;28;20041;-76
2022/01/11 06:06:40;;;;;;;7.10;3.42;;;;;;;;;;5027910;28;20373;-76
2022/01/11 06:09:06;;;;;;;5.68;2.47;;;;;;;;;;5029616;28;20038;-76
2022/01/11 06:11:32;;;;;;;6.95;2.65;;;;;;;;;;5031661;28;20067;-76
2022/01/11 06:13:58;;;;;;;6.03;2.65;;;;;;;;;;5032281;28;20044;-76
2022/01/11 06:16:24;;;;;;;7.57;3.45;;;;;;;;;;5025846;28;20056;-76
2022/01/11 06:18:50;;;;;;;7.00;2.75;;;;;;;;;;5026606;28;20040;-76
2022/01/11 06:21:16;;;;;;;4.82;1.58;;;;;;;;;;5030866;28;20060;-76
2022/01/11 06:23:42;;;;;;;11.32;2.50;;;;;;;;;;5031980;28;20057;-76
2022/01/11 06:26:08;;;;;;;7.43;2.10;;;;;;;;;;5031063;28;20024;-76
2022/01/11 06:28:35;;;;;;;9.57;2.17;;;;;;;;;;5031798;28;20496;-76
2022/01/11 06:31:01;;;;;;;4.70;1.92;;;;;;;;;;5028371;28;21051;-76
2022/01/11 06:33:27;;;;;;;8.13;2.92;;;;;;;;;;5024017;28;20041;-76
2022/01/11 06:35:53;;;;;;;9.93;2.70;;;;;;;;;;5028143;28;20029;-76
2022/01/11 06:38:19;;;;;;;10.10;2.70;;;;;;;;;;5026927;28;20038;-76
2022/01/11 06:40:45;;;;;;;8.85;2.97;;;;;;;;;;5020845;28;20025;-76
2022/01/11 06:43:11;;;;;;;8.18;2.30;;;;;;;;;;5025505;28;20397;-76
2022/01/11 06:45:38;;;;;;;8.55;2.65;;;;;;;;;;5027044;28;20029;-76
2022/01/11 06:48:04;;;;;;;5.45;2.20;;;;;;;;;;5019826;28;20372;-76
2022/01/11 06:50:30;;;;;;;7.90;2.63;;;;;;;;;;5027061;28;20030;-76
2022/01/11 06:52:56;;;;;;;8.43;2.80;;;;;;;;;;5025301;28;20041;-76
2022/01/11 06:55:22;;;;;;;7.38;2.95;;;;;;;;;;5025461;28;20384;-76
2022/01/11 06:57:48;;;;;;;6.97;2.38;;;;;;;;;;5019901;28;20091;-76
2022/01/11 07:00:15;;;;;;;5.65;1.83;;;;;;;;;;5018748;28;20044;-76
2022/01/11 07:02:41;;;;;;;7.70;1.90;;;;;;;;;;5019085;28;20038;-76
2022/01/11 07:05:07;;;;;;;6.15;2.40;;;;;;;;;;5013015;28;20424;-76
2022/01/11 07:07:34;;;;;;;8.65;3.58;;;;;;;;;;5016837;28;20144;-76
2022/01/11 07:10:00;;;;;;;7.00;2.38;;;;;;;;;;5021614;28;20034;-76
2022/01/11 07:12:26;;;;;;;8.55;3.03;;;;;;;;;;5022905;28;20060;-76
2022/01/11 07:14:52;;;;;;;9.13;3.30;;;;;;;;;;5020012;28;20687;-76
2022/01/11 07:17:20;;;;;;;6.97;2.85;;;;;;;;;;5025517;28;20033;-76
2022/01/11 07:19:46;;;;;;;5.55;2.67;;;;;;;;;;5029643;28;20453;-76
2022/01/11 07:22:12;;;;;;;11.52;3.03;;;;;;;;;;5023080;28;20073;-76
2022/01/11 07:24:38;;;;;;;5.72;2.20;;;;;;;;;;5026186;28;20041;-76
2022/01/11 07:27:04;;;;;;;6.65;2.55;;;;;;;;;;5026916;28;20033;-76
2022/01/11 07:29:30;;;;;;;6.20;2.05;;;;;;;;;;5026440;28;20038;-76
2022/01/11 07:31:56;;;;;;;51.63;23.23;;;;;;;;;;5021706;28;20034;-76
2022/01/11 07:34:22;;;;;;;17.42;7.80;;;;;;;;;;5025085;28;20373;-76
2022/01/11 07:36:48;;;;;;;11.93;5.53;;;;;;;;;;5027061;28;20038;-76
2022/01/11 07:39:15;;;;;;;6.68;2.53;;;;;;;;;;5021332;28;20038;-76
2022/01/11 07:41:41;;;;;;;6.10;2.60;;;;;;;;;;5028421;28;20033;-76
2022/01/11 07:44:08;;;;;;;9.52;2.72;;;;;;;;;;5027355;28;20065;-76
2022/01/11 07:46:34;;;;;;;4.68;1.90;;;;;;;;;;5023821;28;20563;-76
2022/01/11 07:49:00;;;;;;;7.45;1.92;;;;;;;;;;5019180;28;20388;-76
2022/01/11 07:51:26;;;;;;;6.38;2.20;;;;;;;;;;5026640;28;20033;-75
2022/01/11 07:53:53;;;;;;;10.00;1.52;;;;;;;;;;5016259;28;20083;-76
2022/01/11 07:56:19;;;;;;;7.68;1.85;;;;;;;;;;5028038;28;20033;-76
2022/01/11 07:58:46;;;;;;;6.20;2.05;;;;;;;;;;5027874;28;20072;-76
2022/01/11 08:01:12;;;;;;;10.02;3.22;;;;;;;;;;5027464;28;20044;-76
2022/01/11 08:03:38;;;;;;;7.75;2.42;;;;;;;;;;5029054;28;20079;-76
2022/01/11 08:06:04;;;;;;;8.40;2.40;;;;;;;;;;5029745;28;20113;-76
2022/01/11 08:08:30;;;;;;;6.28;2.50;;;;;;;;;;5026272;28;20646;-75
2022/01/11 08:10:56;;;;;;;6.63;3.15;;;;;;;;;;5020540;28;20435;-76
2022/01/11 08:13:23;;;;;;;7.13;3.25;;;;;;;;;;5026319;28;20044;-76
2022/01/11 08:15:49;;;;;;;6.18;2.85;;;;;;;;;;5029723;28;20041;-76
2022/01/11 08:18:15;;;;;;;6.97;2.78;;;;;;;;;;5029021;28;20485;-76
2022/01/11 08:20:43;;;;;;;8.30;3.08;;;;;;;;;;5014650;28;20034;-76
2022/01/11 08:23:09;;;;;;;8.60;3.17;;;;;;;;;;5007654;28;20050;-76
2022/01/11 08:25:35;;;;;;;8.65;3.85;;;;;;;;;;4994064;28;20024;-76
2022/01/11 08:28:01;;;;;;;9.82;4.25;;;;;;;;;;5009511;28;20068;-76
2022/01/11 08:30:28;;;;;;;12.10;3.75;;;;;;;;;;5002724;28;20034;-76
2022/01/11 08:32:54;;;;;;;10.45;2.97;;;;;;;;;;5005649;28;20041;-76
2022/01/11 08:35:20;;;;;;;8.23;3.13;;;;;;;;;;5009262;28;20041;-75
2022/01/11 08:37:46;;;;;;;7.25;4.03;;;;;;;;;;5009285;28;20030;-76
2022/01/11 08:40:13;;;;;;;13.98;4.20;;;;;;;;;;5000905;28;20056;-76
2022/01/11 08:42:39;;;;;;;6.45;2.45;;;;;;;;;;5005412;28;20346;-76
2022/01/11 08:45:06;;;;;;;7.85;2.40;;;;;;;;;;5008361;28;20660;-76
2022/01/11 08:47:32;;;;;;;4.25;1.73;;;;;;;;;;5009736;28;20113;-76
2022/01/11 08:49:59;;;;;;;6.78;2.60;;;;;;;;;;5007735;28;20037;-76
2022/01/11 08:52:26;;;;;;;8.63;2.47;;;;;;;;;;5009204;28;20033;-76
2022/01/11 08:54:52;;;;;;;4.63;2.13;;;;;;;;;;5000557;28;20030;-75
2022/01/11 08:57:19;;;;;;;8.02;2.15;;;;;;;;;;5006332;28;20036;-76
2022/01/11 08:59:46;;;;;;;8.75;2.40;;;;;;;;;;5006697;28;20033;-76
2022/01/11 09:02:12;;;;;;;10.73;3.00;;;;;;;;;;4998453;28;20045;-76
2022/01/11 09:04:38;;;;;;;6.93;3.00;;;;;;;;;;5011561;28;20117;-76
2022/01/11 09:07:04;;;;;;;13.77;3.42;;;;;;;;;;5004253;28;20042;-76
2022/01/11 09:09:32;;;;;;;6.70;3.28;;;;;;;;;;5009492;28;20030;-76
2022/01/11 09:11:58;;;;;;;6.82;3.22;;;;;;;;;;5009071;28;20032;-75
2022/01/11 09:14:24;;;;;;;7.22;2.67;;;;;;;;;;5001742;28;20049;-75
2022/01/11 09:16:51;;;;;;;10.25;3.00;;;;;;;;;;5000365;28;20117;-76
2022/01/11 09:19:18;;;;;;;20.90;3.50;;;;;;;;;;5004971;28;20109;-76
2022/01/11 09:21:44;;;;;;;10.77;3.63;;;;;;;;;;5001182;28;20118;-76
2022/01/11 09:24:11;;;;;;;8.60;2.45;;;;;;;;;;5022767;28;20493;-76
2022/01/11 09:26:38;;;;;;;7.85;2.35;;;;;;;;;;5025248;28;20029;-76
2022/01/11 09:29:04;;;;;;;7.82;2.53;;;;;;;;;;5022582;28;20017;-76
2022/01/11 09:31:30;;;;;;;10.30;3.10;;;;;;;;;;5025452;28;20599;-76
2022/01/11 09:33:56;;;;;;;15.63;4.57;;;;;;;;;;5024169;28;20030;-76
2022/01/11 09:36:22;;;;;;;7.93;3.35;;;;;;;;;;5028258;28;20037;-76
2022/01/11 09:38:48;;;;;;;20.70;3.88;;;;;;;;;;5028981;28;20034;-76
2022/01/11 09:41:14;;;;;;;9.70;3.90;;;;;;;;;;5031789;28;20047;-75
2022/01/11 09:43:41;;;;;;;9.32;4.07;;;;;;;;;;5031239;28;20069;-75
2022/01/11 09:46:07;;;;;;;10.00;5.07;;;;;;;;;;5029619;28;20072;-75
2022/01/11 09:48:34;;;;;;;10.13;5.28;;;;;;;;;;5025377;28;20033;-76
2022/01/11 09:51:00;;;;;;;17.20;5.45;;;;;;;;;;5026316;28;20048;-76
2022/01/11 09:53:27;;;;;;;8.68;4.57;;;;;;;;;;5030308;28;20045;-76
2022/01/11 09:55:53;;;;;;;11.23;5.38;;;;;;;;;;5026922;28;20053;-75
2022/01/11 09:58:19;;;;;;;13.70;5.03;;;;;;;;;;5023325;28;20030;-76
2022/01/11 10:00:45;;;;;;;10.52;5.10;;;;;;;;;;5030927;28;20059;-76
2022/01/11 10:03:13;;;;;;;10.55;4.93;;;;;;;;;;5024505;28;20369;-76
2022/01/11 10:05:39;;;;;;;8.70;5.05;;;;;;;;;;5019040;28;20038;-76
2022/01/11 10:08:18;;;;;;;9.00;5.07;;;;;;;;;;5026463;28;20037;-76
2022/01/11 10:10:45;;;;;;;19.55;7.72;;;;;;;;;;5031440;28;20031;-76
2022/01/11 10:13:27;;;;;;;9.13;4.97;;;;;;;;;;5025278;28;20072;-76
2022/01/11 10:15:53;;;;;;;15.52;6.93;;;;;;;;;;5026137;28;20041;-76
2022/01/11 10:18:35;;;;;;;16.77;8.23;;;;;;;;;;5030960;28;20071;-75
2022/01/11 10:21:01;;;;;;;13.70;5.90;;;;;;;;;;5022769;28;20103;-76
2022/01/11 10:23:34;;;;;;;14.25;5.60;;;;;;;;;;5019539;28;20099;-75
2022/01/11 10:26:00;;;;;;;11.27;4.80;;;;;;;;;;5022763;28;20029;-76
2022/01/11 10:28:33;;;;;;;8.55;4.38;;;;;;;;;;5029944;28;20041;-76
2022/01/11 10:30:59;;;;;;;10.95;4.75;;;;;;;;;;5017606;28;20088;-76
2022/01/11 10:33:25;;;;;;;10.43;4.78;;;;;;;;;;5030247;28;20073;-76
2022/01/11 10:35:51;;;;;;;9.38;4.72;;;;;;;;;;5028613;28;20605;-76
2022/01/11 10:38:28;;;;;;;9.93;4.85;;;;;;;;;;5019434;28;20049;-76
2022/01/11 10:40:54;;;;;;;14.07;6.30;;;;;;;;;;5029422;28;20422;-76
2022/01/11 10:43:21;;;;;;;9.90;5.43;;;;;;;;;;5021106;28;20112;-76
2022/01/11 10:45:51;;;;;;;11.63;6.60;;;;;;;;;;5026233;28;20060;-76
2022/01/11 10:48:22;;;;;;;13.35;5.97;;;;;;;;;;5020203;28;20421;-76
2022/01/11 10:50:49;;;;;;;11.88;5.63;;;;;;;;;;5020487;28;20033;-76
2022/01/11 10:53:20;;;;;;;11.70;6.10;;;;;;;;;;5023250;28;20040;-76
2022/01/11 10:55:50;;;;;;;12.35;6.32;;;;;;;;;;5028227;28;20598;-76
2022/01/11 10:58:16;;;;;;;13.25;6.55;;;;;;;;;;5021026;28;20087;-76
2022/01/11 11:00:42;;;;;;;12.65;6.57;;;;;;;;;;5014381;28;20038;-76
2022/01/11 11:03:13;;;;;;;11.45;6.93;;;;;;;;;;5016561;28;20867;-76
2022/01/11 11:05:40;;;;;;;12.15;5.55;;;;;;;;;;5023669;28;20037;-76
2022/01/11 11:08:09;;;;;;;12.68;6.55;;;;;;;;;;5026756;28;20041;-76
2022/01/11 11:10:37;;;;;;;11.90;3.67;;;;;;;;;;5024709;28;20034;-76
2022/01/11 11:13:04;;;;;;;10.85;4.10;;;;;;;;;;5022359;28;20033;-76
2022/01/11 11:15:34;;;;;;;8.73;3.70;;;;;;;;;;5019706;28;20108;-76
2022/01/11 11:18:03;;;;;;;7.75;4.00;;;;;;;;;;5022765;28;20040;-76
2022/01/11 11:20:29;;;;;;;11.43;4.57;;;;;;;;;;5025875;28;20504;-76
2022/01/11 11:22:55;;;;;;;10.27;4.68;;;;;;;;;;5026867;28;20068;-76
2022/01/11 11:25:21;;;;;;;8.80;4.38;;;;;;;;;;5030290;28;20030;-76
2022/01/11 11:27:47;;;;;;;10.10;4.38;;;;;;;;;;5029903;28;20025;-76
2022/01/11 11:30:13;;;;;;;10.07;4.15;;;;;;;;;;5026904;28;20038;-76
2022/01/11 11:32:39;;;;;;;6.70;3.10;;;;;;;;;;5027713;28;20037;-76
2022/01/11 11:35:06;;;;;;;5.97;3.22;;;;;;;;;;5027408;28;20030;-76
2022/01/11 11:37:35;;;;;;;6.13;2.97;;;;;;;;;;5029473;28;20030;-76
2022/01/11 11:40:04;;;;;;;6.28;3.10;;;;;;;;;;5029953;28;20021;-76
2022/01/11 11:42:31;;;;;;;8.98;3.40;;;;;;;;;;5019321;28;20515;-76
2022/01/11 11:44:58;;;;;;;7.28;3.20;;;;;;;;;;5020830;28;20046;-76
2022/01/11 11:47:31;;;;;;;7.10;3.30;;;;;;;;;;5019796;28;20029;-76
2022/01/11 11:50:00;;;;;;;7.93;3.63;;;;;;;;;;5025363;28;20465;-76
2022/01/11 11:52:30;;;;;;;6.78;3.28;;;;;;;;;;5026993;28;20026;-76
2022/01/11 11:55:00;;;;;;;8.70;3.90;;;;;;;;;;5022457;28;20037;-76
2022/01/11 11:57:28;;;;;;;8.70;3.67;;;;;;;;;;5024627;28;20085;-76
2022/01/11 11:59:56;;;;;;;12.35;4.55;;;;;;;;;;5025199;28;20044;-76
2022/01/11 12:02:34;;;;;;;9.07;3.83;;;;;;;;;;5029122;28;20026;-77
2022/01/11 12:05:00;;;;;;;9.85;3.28;;;;;;;;;;5024119;28;20342;-76
2022/01/11 12:07:40;;;;;;;11.25;3.30;;;;;;;;;;5025726;28;20033;-76
2022/01/11 12:10:09;;;;;;;7.55;3.03;;;;;;;;;;5021358;28;20057;-76
2022/01/11 12:12:43;;;;;;;7.35;3.08;;;;;;;;;;5021172;28;20028;-76
2022/01/11 12:15:31;;;;;;;6.00;2.90;;;;;;;;;;5024703;28;20109;-76
2022/01/11 12:17:57;;;;;;;6.18;2.60;;;;;;;;;;5021159;28;20755;-76
2022/01/11 12:20:42;;;;;;;5.60;2.35;;;;;;;;;;5016184;28;20041;-76
2022/01/11 12:23:08;;;;;;;5.35;2.33;;;;;;;;;;5023251;28;20050;-76
2022/01/11 12:25:41;;;;;;;4.53;2.10;;;;;;;;;;5020320;28;20389;-76
2022/01/11 12:28:15;;;;;;;5.68;3.00;;;;;;;;;;5014162;28;21701;-76
2022/01/11 12:30:41;;;;;;;8.05;3.90;;;;;;;;;;5025813;28;20029;-76
2022/01/11 12:33:22;;;;;;;8.18;3.90;;;;;;;;;;5026105;28;20087;-76
2022/01/11 12:35:59;;;;;;;8.27;3.05;;;;;;;;;;5020131;28;20029;-76
2022/01/11 12:38:26;;;;;;;7.93;2.92;;;;;;;;;;5021002;28;20072;-76
2022/01/11 12:40:52;;;;;;;5.55;2.60;;;;;;;;;;5031526;28;20698;-76
2022/01/11 12:43:46;;;;;;;7.20;2.28;;;;;;;;;;5028878;28;20041;-76
2022/01/11 12:46:13;;;;;;;5.32;2.47;;;;;;;;;;5024222;28;20021;-76
2022/01/11 12:48:46;;;;;;;12.38;4.60;;;;;;;;;;5026732;28;20449;-76
2022/01/11 12:51:22;;;;;;;8.45;3.28;;;;;;;;;;5029547;28;20022;-76
2022/01/11 12:53:49;;;;;;;10.77;4.90;;;;;;;;;;5023746;28;20049;-76
2022/01/11 12:56:15;;;;;;;9.63;4.80;;;;;;;;;;5028725;28;20369;-76
2022/01/11 12:58:43;;;;;;;10.02;4.80;;;;;;;;;;5026643;28;20033;-76
2022/01/11 13:01:16;;;;;;;10.88;4.70;;;;;;;;;;5030698;28;20033;-76
2022/01/11 13:03:57;;;;;;;10.43;3.95;;;;;;;;;;5028961;28;20040;-76
2022/01/11 13:06:23;;;;;;;10.02;3.72;;;;;;;;;;5030564;28;20357;-76
2022/01/11 13:08:56;;;;;;;10.43;4.30;;;;;;;;;;5029019;28;20044;-76
2022/01/11 13:11:22;;;;;;;7.53;3.50;;;;;;;;;;5026195;28;20104;-76
2022/01/11 13:13:56;;;;;;;8.23;3.10;;;;;;;;;;5032782;28;20399;-76
2022/01/11 13:16:23;;;;;;;8.43;3.90;;;;;;;;;;5030424;28;20080;-76
2022/01/11 13:18:49;;;;;;;10.05;4.22;;;;;;;;;;5030228;28;20088;-76
2022/01/11 13:21:19;;;;;;;8.10;4.20;;;;;;;;;;5029999;28;20156;-76
2022/01/11 13:23:56;;;;;;;8.00;3.58;;;;;;;;;;5032872;28;20061;-76
2022/01/11 13:26:22;;;;;;;14.18;6.47;;;;;;;;;;5028069;28;20029;-76
2022/01/11 13:28:55;;;;;;;13.98;5.88;;;;;;;;;;5032632;28;20037;-76
2022/01/11 13:31:26;;;;;;;11.02;5.32;;;;;;;;;;5015469;28;20361;-76
2022/01/11 13:33:54;;;;;;;10.40;5.50;;;;;;;;;;5032544;28;20038;-76
2022/01/11 13:36:27;;;;;;;11.90;7.10;;;;;;;;;;5026064;28;20111;-76
2022/01/11 13:38:59;;;;;;;21.88;13.13;;;;;;;;;;5017022;28;20117;-76
2022/01/11 13:41:34;;;;;;;18.23;10.13;;;;;;;;;;5031576;28;20025;-76
2022/01/11 13:44:01;;;;;;;13.27;7.40;;;;;;;;;;5024750;28;20058;-76
2022/01/11 13:46:28;;;;;;;14.10;8.70;;;;;;;;;;5022122;28;20033;-76
2022/01/11 13:48:55;;;;;;;14.70;8.38;;;;;;;;;;5027128;28;20034;-75
2022/01/11 13:51:25;;;;;;;13.50;7.05;;;;;;;;;;5029929;28;20709;-76
2022/01/11 13:53:57;;;;;;;14.45;6.82;;;;;;;;;;5026096;28;20038;-76
2022/01/11 13:56:23;;;;;;;16.67;8.70;;;;;;;;;;5028525;28;20384;-76
2022/01/11 13:58:50;;;;;;;17.80;9.82;;;;;;;;;;5026605;28;20038;-76
2022/01/11 14:01:17;;;;;;;15.38;8.48;;;;;;;;;;5031620;28;20040;-76
2022/01/11 14:03:43;;;;;;;16.15;7.85;;;;;;;;;;5031201;28;20499;-76
2022/01/11 14:06:10;;;;;;;13.88;6.10;;;;;;;;;;5031944;28;20033;-76
2022/01/11 14:08:39;;;;;;;11.07;6.53;;;;;;;;;;5030229;28;20131;-76
2022/01/11 14:11:07;;;;;;;13.82;6.57;;;;;;;;;;5031210;28;20051;-76
2022/01/11 14:13:34;;;;;;;12.63;6.35;;;;;;;;;;5030160;28;20049;-76
2022/01/11 14:16:08;;;;;;;13.23;7.40;;;;;;;;;;5025083;28;20476;-76
2022/01/11 14:18:34;;;;;;;17.05;8.75;;;;;;;;;;5031535;28;20072;-76
2022/01/11 14:21:08;;;;;;;16.50;10.00;;;;;;;;;;5030243;28;20029;-76
2022/01/11 14:23:35;;;;;;;17.67;10.25;;;;;;;;;;5025061;28;20092;-75
2022/01/11 14:26:01;;;;;;;18.30;9.52;;;;;;;;;;5023486;28;20058;-76
2022/01/11 14:28:33;;;;;;;12.10;8.00;;;;;;;;;;5024931;28;20134;-76
2022/01/11 14:31:00;;;;;;;14.55;9.23;;;;;;;;;;5031770;28;20049;-76
2022/01/11 14:33:27;;;;;;;14.13;8.23;;;;;;;;;;5029073;28;20053;-76
2022/01/11 14:35:55;;;;;;;16.75;7.70;;;;;;;;;;5026044;28;20033;-76
2022/01/11 14:38:22;;;;;;;15.60;8.48;;;;;;;;;;5021114;28;20033;-76
2022/01/11 14:40:49;;;;;;;19.10;8.80;;;;;;;;;;5021012;28;20037;-76
2022/01/11 14:43:15;;;;;;;20.95;9.95;;;;;;;;;;5028114;28;20041;-76